Time;durP1;ratioP1;P1;durP2;ratioP2;P2;SDS_P1;SDS_P2;PMS_P1;PMS_P2;Temp;Humidity;BMP_temperature;BMP_pressure;BME280_temperature;BME280_humidity;BME280_pressure;Samples;Min_cycle;Max_cycle;Signal;HPM_P1;HPM_P2
2022/11/03 00:01:51;;;;;;;10.90;2.83;;;;;;;10.69;77.08;101424.06;5051063;28;20048;-75
2022/11/03 00:04:19;;;;;;;18.88;3.60;;;;;;;10.66;77.30;101413.53;5051675;28;20033;-74
2022/11/03 00:06:47;;;;;;;25.70;4.30;;;;;;;10.68;77.15;101411.75;5049730;28;20151;-75
2022/11/03 00:09:15;;;;;;;15.95;3.50;;;;;;;10.68;77.15;101410.84;5045506;28;20477;-75
2022/11/03 00:11:42;;;;;;;16.55;3.28;;;;;;;10.69;77.15;101404.66;5049069;28;20102;-74
2022/11/03 00:14:09;;;;;;;12.88;3.00;;;;;;;10.69;77.08;101402.00;5046766;28;20029;-75
2022/11/03 00:16:36;;;;;;;21.65;3.80;;;;;;;10.69;77.28;101408.19;5049496;28;20416;-75
2022/11/03 00:19:01;;;;;;;15.50;2.90;;;;;;;10.71;77.26;101403.75;5050534;28;20116;-75
2022/11/03 00:21:27;;;;;;;16.35;3.50;;;;;;;10.73;77.14;101398.41;5045947;28;20469;-74
2022/11/03 00:23:53;;;;;;;14.68;3.20;;;;;;;10.72;77.08;101394.88;5048110;28;20091;-75
2022/11/03 00:26:21;;;;;;;15.68;3.55;;;;;;;10.69;77.24;101389.63;5042464;28;20041;-75
2022/11/03 00:28:49;;;;;;;14.13;2.90;;;;;;;10.70;77.44;101391.38;5032707;28;20033;-75
2022/11/03 00:31:20;;;;;;;14.82;3.50;;;;;;;10.70;77.35;101382.56;5029208;28;20028;-75
2022/11/03 00:33:46;;;;;;;11.82;2.92;;;;;;;10.71;77.24;101386.97;5031058;28;20556;-75
2022/11/03 00:36:23;;;;;;;18.30;3.72;;;;;;;10.72;77.07;101383.41;5031056;28;20137;-75
2022/11/03 00:38:49;;;;;;;17.30;3.22;;;;;;;10.72;77.24;101379.00;5041978;28;20141;-75
2022/11/03 00:41:15;;;;;;;17.23;3.65;;;;;;;10.72;77.24;101376.34;5024043;28;20033;-75
2022/11/03 00:43:41;;;;;;;15.10;3.55;;;;;;;10.73;77.37;101367.50;5032096;28;20389;-76
2022/11/03 00:46:08;;;;;;;12.98;2.97;;;;;;;10.73;77.51;101359.56;5032440;28;20116;-75
2022/11/03 00:48:34;;;;;;;12.55;2.67;;;;;;;10.75;77.32;101351.56;5029645;28;20029;-75
2022/11/03 00:51:07;;;;;;;16.60;3.22;;;;;;;10.77;77.34;101352.44;5022929;28;20033;-75
2022/11/03 00:53:34;;;;;;;14.38;3.28;;;;;;;10.78;77.07;101343.63;5030390;28;20061;-75
2022/11/03 00:56:00;;;;;;;11.90;2.78;;;;;;;10.78;76.97;101348.91;5028031;28;20029;-75
2022/11/03 00:58:26;;;;;;;16.02;2.75;;;;;;;10.80;77.09;101347.09;5026233;28;20033;-75
2022/11/03 01:01:07;;;;;;;10.48;3.00;;;;;;;10.80;77.05;101333.84;5036328;28;20030;-75
2022/11/03 01:03:34;;;;;;;16.38;3.50;;;;;;;10.80;76.91;101328.53;5032332;28;20388;-75
2022/11/03 01:08:45;;;;;;;12.93;2.67;;;;;;;10.82;76.82;101336.47;5032319;28;20044;-75
2022/11/03 01:13:59;;;;;;;17.83;2.90;;;;;;;10.87;76.94;101321.38;5032109;28;20029;-75
2022/11/03 01:16:25;;;;;;;16.27;3.20;;;;;;;10.88;76.96;101326.66;5032009;28;20394;-75
2022/11/03 01:18:50;;;;;;;18.27;3.35;;;;;;;10.87;76.99;101318.72;5031968;28;20057;-75
2022/11/03 01:21:17;;;;;;;15.73;3.75;;;;;;;10.87;77.03;101318.72;5032206;28;20124;-75
2022/11/03 01:23:43;;;;;;;16.00;2.92;;;;;;;10.87;77.30;101306.34;5030470;28;20048;-75
2022/11/03 01:26:10;;;;;;;12.68;2.65;;;;;;;10.91;77.12;101307.19;5030646;28;20037;-75
2022/11/03 01:28:37;;;;;;;16.23;3.47;;;;;;;10.89;77.22;101311.66;5030399;28;20029;-75
2022/11/03 01:31:09;;;;;;;16.05;3.65;;;;;;;10.89;77.20;101312.50;5030514;28;20120;-75
2022/11/03 01:33:34;;;;;;;12.55;3.08;;;;;;;10.90;77.11;101302.78;5031766;28;20041;-75
2022/11/03 01:36:00;;;;;;;14.85;2.88;;;;;;;10.90;77.62;101290.41;5031717;28;20478;-75
2022/11/03 01:38:26;;;;;;;15.85;2.58;;;;;;;10.93;77.08;101294.81;5031730;28;20037;-75
2022/11/03 01:40:51;;;;;;;18.48;3.95;;;;;;;10.94;77.46;101288.59;5029483;28;20152;-75
2022/11/03 01:43:21;;;;;;;17.48;3.00;;;;;;;10.94;77.40;101292.13;5031442;28;20504;-75
2022/11/03 01:45:52;;;;;;;12.02;2.95;;;;;;;10.92;77.36;101285.97;5030303;28;20041;-75
2022/11/03 01:48:20;;;;;;;;;;;;;;;10.97;76.96;101277.94;5032029;28;20065;-75
2022/11/03 01:50:46;;;;;;;17.17;3.22;;;;;;;10.96;77.48;101270.91;5031428;28;19913;-75
2022/11/03 01:53:15;;;;;;;10.68;2.78;;;;;;;10.98;77.35;101275.28;5031503;28;20060;-75
2022/11/03 01:55:41;;;;;;;16.33;3.03;;;;;;;11.00;77.50;101272.59;5031482;28;20056;-75
2022/11/03 01:58:18;;;;;;;16.08;3.22;;;;;;;11.03;77.35;101266.34;5031448;28;20384;-75
2022/11/03 02:00:47;;;;;;;18.00;3.10;;;;;;;11.03;77.23;101266.34;5030956;28;20037;-75
2022/11/03 02:03:14;;;;;;;14.88;2.60;;;;;;;11.02;77.46;101268.13;5029892;28;20040;-75
2022/11/03 02:05:42;;;;;;;16.63;3.25;;;;;;;11.03;77.49;101261.94;5031377;28;20041;-75
2022/11/03 02:08:39;;;;;;;10.38;2.40;;;;;;;11.02;77.43;101254.00;5030076;28;20025;-75
2022/11/03 02:12:05;;;;;;;22.27;3.33;;;;;;;11.04;77.70;101254.88;5025079;28;20049;-75
2022/11/03 02:13:50;;;;;;;13.43;3.05;;;;;;;11.04;77.67;101245.13;5029595;28;20136;-75
2022/11/03 02:16:17;;;;;;;13.20;3.13;;;;;;;11.05;77.99;101246.00;5029688;28;20128;-75
2022/11/03 02:18:44;;;;;;;13.77;3.00;;;;;;;11.08;78.15;101243.31;5030983;28;20043;-75
2022/11/03 02:21:29;;;;;;;12.80;2.80;;;;;;;11.07;77.84;101246.84;5029486;28;20354;-75
2022/11/03 02:24:23;;;;;;;14.18;3.13;;;;;;;11.10;78.01;101229.16;5029318;28;20033;-75
2022/11/03 02:26:52;;;;;;;16.60;3.53;;;;;;;11.09;77.93;101234.47;5030497;28;20041;-75
2022/11/03 02:29:18;;;;;;;14.38;3.08;;;;;;;11.12;77.99;101227.31;5029618;28;20046;-75
2022/11/03 02:32:10;;;;;;;10.82;2.80;;;;;;;11.16;77.78;101225.50;5029638;28;20046;-75
2022/11/03 02:34:47;;;;;;;18.83;3.05;;;;;;;11.17;78.05;101222.81;5030917;28;20125;-75
2022/11/03 02:37:22;;;;;;;19.40;3.75;;;;;;;11.16;77.89;101218.41;5030793;28;20116;-75
2022/11/03 02:39:58;;;;;;;17.42;3.85;;;;;;;11.17;77.88;101198.06;5029629;28;20033;-75
2022/11/03 02:42:25;;;;;;;20.52;3.70;;;;;;;11.18;78.06;101202.50;5029801;28;20059;-75
2022/11/03 02:44:54;;;;;;;12.55;2.53;;;;;;;11.22;77.55;101192.69;5030933;28;20029;-75
2022/11/03 02:47:21;;;;;;;18.98;3.63;;;;;;;11.23;77.59;101194.47;5029355;28;20041;-75
2022/11/03 02:49:52;;;;;;;20.95;3.20;;;;;;;11.23;77.73;101190.03;5031069;28;20038;-75
2022/11/03 02:52:34;;;;;;;13.73;2.83;;;;;;;11.23;77.76;101187.38;5030693;28;20104;-75
2022/11/03 02:55:19;;;;;;;18.70;3.05;;;;;;;11.20;77.52;101179.44;5030491;28;20124;-75
2022/11/03 02:57:52;;;;;;;15.68;3.20;;;;;;;11.18;78.23;101168.03;5029672;28;20441;-75
2022/11/03 03:00:18;;;;;;;15.20;3.33;;;;;;;11.18;78.20;101178.63;5030543;28;20048;-75
2022/11/03 03:02:49;;;;;;;13.73;2.95;;;;;;;11.17;78.15;101159.19;5031036;28;20030;-75
2022/11/03 03:05:17;;;;;;;14.10;2.83;;;;;;;11.16;78.24;101173.34;5030472;28;20052;-75
2022/11/03 03:07:49;;;;;;;18.15;3.25;;;;;;;11.16;78.55;101172.47;5030909;28;20029;-75
2022/11/03 03:10:22;;;;;;;11.50;2.72;;;;;;;11.15;78.15;101161.00;5030474;28;20086;-75
2022/11/03 03:12:54;;;;;;;14.70;2.65;;;;;;;11.11;78.67;101151.38;5033272;28;20053;-75
2022/11/03 03:15:27;;;;;;;10.73;2.63;;;;;;;11.12;78.37;101147.78;5034037;28;20073;-75
2022/11/03 03:18:19;;;;;;;14.10;2.88;;;;;;;11.14;78.67;101146.00;5034570;28;20086;-75
2022/11/03 03:20:50;;;;;;;12.65;3.03;;;;;;;11.14;79.15;101146.00;5032483;28;20061;-75
2022/11/03 03:23:20;;;;;;;16.45;3.20;;;;;;;11.15;79.42;101145.13;5034457;28;20036;-75
2022/11/03 03:25:54;;;;;;;11.32;2.75;;;;;;;11.13;78.95;101143.41;5032814;28;20397;-75
2022/11/03 03:28:33;;;;;;;12.98;2.65;;;;;;;11.12;79.03;101121.28;5032891;28;20033;-75
2022/11/03 03:31:04;;;;;;;14.30;3.10;;;;;;;11.14;79.08;101134.53;5033899;28;20068;-75
2022/11/03 03:33:32;;;;;;;10.70;2.97;;;;;;;11.16;78.83;101138.03;5032854;28;20041;-75
2022/11/03 03:36:02;;;;;;;12.80;3.30;;;;;;;11.12;79.10;101137.19;5032570;28;20083;-75
2022/11/03 03:38:34;;;;;;;11.95;2.63;;;;;;;11.12;79.15;101129.25;5034062;28;20030;-75
2022/11/03 03:41:01;;;;;;;14.30;3.28;;;;;;;11.12;79.25;101113.34;5030860;28;20120;-75
2022/11/03 03:43:30;;;;;;;11.32;2.92;;;;;;;11.13;79.22;101123.06;5013117;28;20034;-75
2022/11/03 03:46:01;;;;;;;10.90;2.53;;;;;;;11.14;79.24;101108.03;5027380;28;20060;-75
2022/11/03 03:48:27;;;;;;;10.88;3.30;;;;;;;11.12;79.43;101120.41;5032277;28;20044;-75
2022/11/03 03:50:53;;;;;;;9.63;2.42;;;;;;;11.13;79.14;101116.88;5033948;28;20037;-75
2022/11/03 03:53:18;;;;;;;11.93;2.97;;;;;;;11.13;79.27;101108.94;5015717;28;20034;-75
2022/11/03 03:55:48;;;;;;;15.73;3.55;;;;;;;11.11;79.39;101100.13;5033818;28;20032;-75
2022/11/03 03:58:15;;;;;;;14.02;3.20;;;;;;;11.09;79.70;101096.63;5033734;28;20041;-75
2022/11/03 04:00:41;;;;;;;13.90;2.88;;;;;;;11.09;79.79;101094.84;5033631;28;20462;-75
2022/11/03 04:03:19;;;;;;;13.45;2.90;;;;;;;11.10;79.83;101087.78;5033640;28;20037;-75
2022/11/03 04:05:45;;;;;;;9.95;2.67;;;;;;;11.10;80.58;101090.41;5033623;28;20094;-75
2022/11/03 04:08:14;;;;;;;10.40;2.90;;;;;;;11.08;79.92;101084.31;5033670;28;20104;-75
2022/11/03 04:10:40;;;;;;;12.48;2.75;;;;;;;11.08;80.54;101085.16;5032172;28;20061;-75
2022/11/03 04:23:47;;;;;;;11.27;2.80;;;;;;;11.14;80.67;101078.88;5032727;28;20073;-75
2022/11/03 04:26:18;;;;;;;10.85;2.83;;;;;;;11.17;80.78;101073.50;5012126;28;20068;-75
2022/11/03 04:28:44;;;;;;;15.38;2.88;;;;;;;11.16;80.52;101069.97;5028728;28;20044;-75
2022/11/03 04:31:16;;;;;;;14.95;2.83;;;;;;;11.15;80.66;101072.66;5031640;28;20025;-75
2022/11/03 04:33:43;;;;;;;13.55;3.03;;;;;;;11.15;80.71;101073.53;5031646;28;20446;-75
2022/11/03 04:36:19;;;;;;;14.10;2.70;;;;;;;11.16;81.12;101063.81;5032957;28;20104;-75
2022/11/03 04:38:44;;;;;;;12.55;2.90;;;;;;;11.14;81.46;101069.13;5033008;28;20056;-75
2022/11/03 04:41:16;;;;;;;16.00;3.53;;;;;;;11.19;81.69;101064.59;5031646;28;20026;-75
2022/11/03 04:43:44;;;;;;;13.13;2.75;;;;;;;11.17;81.72;101063.75;5032921;28;20034;-75
2022/11/03 04:46:11;;;;;;;10.25;2.50;;;;;;;11.16;81.30;101059.38;5031336;28;20063;-75
2022/11/03 04:48:37;;;;;;;14.18;3.22;;;;;;;11.15;81.99;101055.00;5032600;28;20389;-75
2022/11/03 04:51:13;;;;;;;9.48;2.45;;;;;;;11.16;81.91;101053.22;5032733;28;20049;-75
2022/11/03 04:54:02;;;;;;;10.55;2.67;;;;;;;11.16;82.06;101055.84;5032394;28;20516;-75
2022/11/03 04:56:29;;;;;;;18.83;2.70;;;;;;;11.15;82.16;101056.75;5030536;28;20562;-75
2022/11/03 04:58:56;;;;;;;13.00;3.03;;;;;;;11.19;82.30;101045.19;5031301;28;20029;-75
2022/11/03 05:01:23;;;;;;;7.78;2.40;;;;;;;11.20;82.21;101049.56;5032411;28;20037;-75
2022/11/03 05:03:52;;;;;;;17.30;3.13;;;;;;;11.23;82.00;101038.91;5032458;28;20090;-75
2022/11/03 05:06:18;;;;;;;14.00;2.70;;;;;;;11.24;82.58;101030.06;5032278;28;20052;-75
2022/11/03 05:08:47;;;;;;;12.50;3.00;;;;;;;11.25;82.37;101033.56;5031287;28;20474;-75
2022/11/03 05:11:33;;;;;;;7.57;2.20;;;;;;;11.28;82.33;101022.91;5030605;28;20503;-75
2022/11/03 05:14:06;;;;;;;9.48;2.58;;;;;;;11.27;82.55;101021.16;5032171;28;20045;-75
2022/11/03 05:16:31;;;;;;;14.20;3.00;;;;;;;11.26;82.64;101022.06;5032076;28;20050;-75
2022/11/03 05:18:57;;;;;;;12.82;3.15;;;;;;;11.27;82.80;101021.16;5032040;28;20371;-75
2022/11/03 05:21:25;;;;;;;10.40;2.63;;;;;;;11.26;82.91;101028.25;5032117;28;20119;-75
2022/11/03 05:24:02;;;;;;;9.43;2.92;;;;;;;11.27;83.79;101021.16;5030703;28;20393;-75
2022/11/03 05:26:32;;;;;;;12.55;3.53;;;;;;;11.27;83.44;101006.13;5030535;28;20029;-75
2022/11/03 05:29:03;;;;;;;12.32;3.08;;;;;;;11.28;83.06;101007.00;5032015;28;20045;-75
2022/11/03 05:31:33;;;;;;;16.20;3.40;;;;;;;11.27;83.63;100999.94;5023480;28;20112;-75
2022/11/03 05:34:21;;;;;;;13.57;3.22;;;;;;;11.25;83.31;101000.00;5031102;28;20029;-75
2022/11/03 05:36:47;;;;;;;11.65;2.80;;;;;;;11.25;83.75;100997.34;5031605;28;20052;-75
2022/11/03 05:39:29;;;;;;;12.45;3.15;;;;;;;11.25;83.64;100994.69;5030656;28;20489;-75
2022/11/03 05:41:56;;;;;;;13.98;3.00;;;;;;;11.25;84.50;100984.09;5028858;28;20107;-75
2022/11/03 05:44:38;;;;;;;10.90;2.65;;;;;;;11.26;83.95;100984.97;5030321;28;20026;-75
2022/11/03 05:47:35;;;;;;;10.32;2.97;;;;;;;11.26;84.76;100977.00;5031538;28;20030;-75
2022/11/03 05:50:24;;;;;;;11.82;3.03;;;;;;;11.26;83.93;100971.69;5030120;28;20106;-75
2022/11/03 05:52:53;;;;;;;10.30;2.58;;;;;;;11.23;84.96;100964.69;5031696;28;20095;-75
2022/11/03 05:55:32;;;;;;;12.43;2.50;;;;;;;11.26;84.98;100964.63;5031317;28;20029;-75
2022/11/03 05:58:17;;;;;;;14.35;3.25;;;;;;;11.30;84.75;100968.06;5031581;28;20118;-75
2022/11/03 06:00:43;;;;;;;12.45;2.60;;;;;;;11.29;84.64;100969.84;5030225;28;20398;-75
2022/11/03 06:03:15;;;;;;;11.75;2.72;;;;;;;11.27;84.95;100971.66;5029879;28;20029;-75
2022/11/03 06:05:40;;;;;;;13.32;2.95;;;;;;;11.31;85.15;100959.22;5031604;28;20037;-75
2022/11/03 06:08:19;;;;;;;9.07;2.70;;;;;;;11.31;85.01;100959.22;5031462;28;20438;-75
2022/11/03 06:10:57;;;;;;;11.48;2.40;;;;;;;11.31;85.59;100953.91;5030153;28;20065;-75
2022/11/03 06:13:36;;;;;;;12.27;2.72;;;;;;;11.32;85.40;100947.69;5032415;28;20037;-75
2022/11/03 06:16:27;;;;;;;12.85;3.22;;;;;;;11.31;85.42;100938.00;5046501;28;20437;-75
2022/11/03 06:18:52;;;;;;;12.20;2.70;;;;;;;11.30;85.11;100946.84;5048887;28;20554;-75
2022/11/03 06:21:23;;;;;;;9.57;2.83;;;;;;;11.30;85.80;100941.53;5046357;28;20021;-75
2022/11/03 06:23:49;;;;;;;15.00;3.25;;;;;;;11.29;85.33;100927.41;5046490;28;20112;-74
2022/11/03 06:26:19;;;;;;;12.20;2.90;;;;;;;11.29;85.16;100940.69;5048165;28;20439;-75
2022/11/03 06:28:47;;;;;;;18.90;3.20;;;;;;;11.31;85.08;100933.56;5039454;28;20087;-75
2022/11/03 06:31:32;;;;;;;17.23;3.50;;;;;;;11.34;85.73;100935.28;5047484;28;20638;-75
2022/11/03 06:33:58;;;;;;;13.85;3.00;;;;;;;11.33;86.06;100926.44;5047627;28;20037;-75
2022/11/03 06:36:26;;;;;;;13.05;3.05;;;;;;;11.34;85.49;100930.84;5044214;28;20034;-75
2022/11/03 06:39:00;;;;;;;14.45;3.30;;;;;;;11.32;85.14;100923.81;5043091;28;20024;-75
2022/11/03 06:41:29;;;;;;;18.92;4.22;;;;;;;11.33;86.06;100933.53;5040251;28;20033;-75
2022/11/03 06:44:00;;;;;;;11.55;3.15;;;;;;;11.32;86.16;100924.69;5047464;28;20103;-75
2022/11/03 06:46:26;;;;;;;14.88;2.83;;;;;;;11.35;85.88;100923.75;5049851;28;20420;-75
2022/11/03 06:48:54;;;;;;;13.93;2.78;;;;;;;11.35;85.86;100916.69;5047506;28;20025;-75
2022/11/03 06:51:22;;;;;;;9.70;2.50;;;;;;;11.34;85.55;100920.22;5050048;28;20115;-75
2022/11/03 06:53:52;;;;;;;13.13;3.05;;;;;;;11.35;85.40;100910.50;5047750;28;20361;-75
2022/11/03 06:56:21;;;;;;;14.02;3.17;;;;;;;11.35;85.62;100905.19;5041094;28;20033;-75
2022/11/03 06:58:48;;;;;;;10.98;2.72;;;;;;;11.36;84.80;100913.13;5044491;28;20064;-75
2022/11/03 07:01:28;;;;;;;14.32;3.00;;;;;;;11.37;85.24;100909.56;5035781;28;20025;-74
2022/11/03 07:04:00;;;;;;;10.88;3.28;;;;;;;11.42;85.63;100904.13;5045386;28;20117;-74
2022/11/03 07:06:30;;;;;;;10.85;2.58;;;;;;;11.44;85.05;100902.31;5047627;28;20034;-75
2022/11/03 07:09:00;;;;;;;16.75;3.20;;;;;;;11.47;85.02;100899.59;5036094;28;20493;-75
2022/11/03 07:11:33;;;;;;;12.90;2.70;;;;;;;11.50;84.99;100901.28;5034534;28;20052;-75
2022/11/03 07:14:11;;;;;;;11.30;2.70;;;;;;;11.52;84.83;100900.38;5029876;28;20033;-75
2022/11/03 07:16:43;;;;;;;11.23;2.50;;;;;;;11.53;84.67;100888.84;5023966;28;20099;-75
2022/11/03 07:19:24;;;;;;;20.60;4.18;;;;;;;11.56;84.71;100895.84;5027487;28;20083;-75
2022/11/03 07:21:53;;;;;;;15.18;3.20;;;;;;;11.56;84.87;100893.19;5028934;28;20056;-75
2022/11/03 07:24:22;;;;;;;14.45;2.83;;;;;;;11.57;84.84;100895.81;5015530;28;20016;-75
2022/11/03 07:26:52;;;;;;;10.10;2.65;;;;;;;11.58;84.34;100902.00;5032582;28;20091;-75
2022/11/03 07:29:21;;;;;;;11.93;2.92;;;;;;;11.61;84.68;100892.16;5032567;28;20041;-75
2022/11/03 07:31:48;;;;;;;11.02;2.70;;;;;;;11.63;84.39;100892.13;5027352;28;20496;-74
2022/11/03 07:34:19;;;;;;;14.75;3.28;;;;;;;11.66;84.33;100893.84;5032763;28;20122;-75
2022/11/03 07:36:45;;;;;;;14.55;2.65;;;;;;;11.68;84.21;100886.72;5015909;28;20042;-74
2022/11/03 07:39:17;;;;;;;13.45;3.13;;;;;;;11.68;84.18;100876.97;5028014;28;20033;-74
2022/11/03 07:41:43;;;;;;;11.55;3.00;;;;;;;11.69;84.01;100877.84;5028545;28;20041;-74
2022/11/03 07:44:14;;;;;;;13.65;2.88;;;;;;;11.70;83.88;100871.63;5028600;28;20048;-74
2022/11/03 07:46:42;;;;;;;14.45;3.15;;;;;;;11.69;83.14;100873.41;5024911;28;20030;-75
2022/11/03 07:49:29;;;;;;;12.10;2.72;;;;;;;11.71;83.10;100874.22;5023391;28;20164;-74
2022/11/03 07:51:58;;;;;;;13.50;3.03;;;;;;;11.74;83.15;100867.97;5024339;28;20437;-74
2022/11/03 07:54:32;;;;;;;12.80;2.63;;;;;;;11.75;83.24;100867.94;5029399;28;20068;-74
2022/11/03 07:57:12;;;;;;;11.68;2.72;;;;;;;11.79;82.90;100871.38;5023114;28;20116;-75
2022/11/03 07:59:41;;;;;;;10.50;2.90;;;;;;;11.80;82.63;100870.47;5022148;28;20044;-76
2022/11/03 08:02:13;;;;;;;10.82;2.80;;;;;;;11.83;82.71;100871.25;5027991;28;20052;-75
2022/11/03 08:04:38;;;;;;;10.85;3.10;;;;;;;11.84;82.50;100869.47;5033784;28;20079;-75
2022/11/03 08:07:04;;;;;;;16.00;3.10;;;;;;;11.86;82.92;100874.75;5032912;28;20124;-75
2022/11/03 08:09:29;;;;;;;11.85;2.60;;;;;;;11.88;82.75;100867.66;5023577;28;20045;-75
2022/11/03 08:11:54;;;;;;;15.63;3.47;;;;;;;11.91;82.01;100857.81;5030575;28;20033;-75
2022/11/03 08:14:20;;;;;;;14.18;3.10;;;;;;;11.91;81.73;100863.13;5030518;28;20029;-75
2022/11/03 08:16:45;;;;;;;17.65;2.90;;;;;;;11.91;81.45;100855.16;5019277;28;20379;-75
2022/11/03 08:19:11;;;;;;;11.48;3.17;;;;;;;11.94;81.78;100841.84;5031619;28;20083;-75
2022/11/03 08:21:36;;;;;;;14.73;2.70;;;;;;;11.98;81.99;100839.94;5012038;28;20049;-75
2022/11/03 08:24:03;;;;;;;13.95;3.60;;;;;;;12.01;81.32;100837.22;5027077;28;20022;-75
2022/11/03 08:26:28;;;;;;;13.40;2.63;;;;;;;12.02;81.03;100836.31;5027125;28;20053;-75
2022/11/03 08:28:53;;;;;;;14.32;3.30;;;;;;;12.07;81.05;100823.78;5027704;28;20434;-75
2022/11/03 08:31:19;;;;;;;11.98;3.72;;;;;;;12.10;80.56;100815.72;5032841;28;20025;-74
2022/11/03 08:33:44;;;;;;;9.80;3.15;;;;;;;12.13;80.80;100812.09;5022831;28;20084;-75
2022/11/03 08:36:10;;;;;;;16.40;2.90;;;;;;;12.17;80.18;100808.47;5006464;28;20060;-75
2022/11/03 08:38:36;;;;;;;11.93;2.55;;;;;;;12.21;79.84;100808.31;5017965;28;20041;-75
2022/11/03 08:41:02;;;;;;;10.65;2.63;;;;;;;12.24;79.92;100797.63;5028091;28;20099;-75
2022/11/03 08:43:28;;;;;;;13.40;3.20;;;;;;;12.26;79.10;100787.81;5032119;28;20439;-75
2022/11/03 08:45:53;;;;;;;8.00;2.53;;;;;;;12.30;79.37;100782.41;5032045;28;20045;-75
2022/11/03 08:48:20;;;;;;;12.30;2.58;;;;;;;12.34;79.45;100771.66;5032588;28;20030;-75
2022/11/03 08:50:47;;;;;;;10.75;2.55;;;;;;;12.38;79.04;100759.16;5041213;28;20014;-75
2022/11/03 08:53:12;;;;;;;12.55;2.90;;;;;;;12.42;78.69;100743.06;5030985;28;20038;-76
2022/11/03 08:55:38;;;;;;;12.57;2.83;;;;;;;12.45;78.75;100742.09;5030806;28;20045;-75
2022/11/03 08:58:03;;;;;;;16.58;2.80;;;;;;;12.50;78.80;100745.47;5032163;28;20049;-75
2022/11/03 09:00:28;;;;;;;11.50;3.35;;;;;;;12.54;78.07;100740.97;5020352;28;20182;-75
2022/11/03 09:02:54;;;;;;;17.10;3.35;;;;;;;12.56;78.36;100742.66;5038438;28;20065;-75
2022/11/03 09:05:19;;;;;;;12.85;3.22;;;;;;;12.61;78.03;100734.50;5030749;28;20036;-75
2022/11/03 09:07:45;;;;;;;13.98;3.33;;;;;;;12.65;78.08;100715.78;5030801;28;20034;-75
2022/11/03 09:10:10;;;;;;;8.80;2.70;;;;;;;12.72;77.99;100700.50;5037065;28;20037;-71
2022/11/03 09:12:36;;;;;;;10.18;2.30;;;;;;;12.77;77.71;100706.53;5030494;28;20028;-71
2022/11/03 09:15:03;;;;;;;11.38;2.65;;;;;;;12.86;77.12;100702.72;5031413;28;20037;-71
2022/11/03 09:17:29;;;;;;;9.77;2.55;;;;;;;12.91;77.44;100692.81;5030096;28;20083;-70
2022/11/03 09:19:54;;;;;;;8.05;2.30;;;;;;;12.97;76.09;100686.41;5023758;28;20053;-71
2022/11/03 09:22:21;;;;;;;8.50;2.65;;;;;;;12.99;76.15;100679.25;5030155;28;20048;-71
2022/11/03 09:24:47;;;;;;;7.60;2.22;;;;;;;13.04;75.59;100675.50;5028596;28;20394;-71
2022/11/03 09:27:12;;;;;;;10.02;2.53;;;;;;;13.08;74.67;100660.28;5042730;28;20042;-71
2022/11/03 09:29:38;;;;;;;12.85;2.90;;;;;;;13.12;75.00;100636.22;5034968;28;20345;-71
2022/11/03 09:32:03;;;;;;;7.40;2.08;;;;;;;13.12;74.46;100633.53;5040507;28;20049;-71
2022/11/03 09:34:31;;;;;;;10.85;2.50;;;;;;;13.13;74.59;100637.09;5045895;28;20128;-71
2022/11/03 09:36:57;;;;;;;11.15;2.80;;;;;;;13.15;74.25;100623.72;5034496;28;20112;-71
2022/11/03 09:39:22;;;;;;;9.10;2.45;;;;;;;13.19;74.25;100623.56;5016460;28;20038;-71
2022/11/03 09:41:49;;;;;;;14.20;2.72;;;;;;;13.18;74.38;100626.28;5030653;28;20496;-71
2022/11/03 09:44:14;;;;;;;8.63;2.85;;;;;;;13.19;74.70;100609.41;5035258;28;20044;-71
2022/11/03 09:46:40;;;;;;;13.10;2.95;;;;;;;13.21;74.49;100616.41;5028478;28;21814;-71
2022/11/03 09:49:05;;;;;;;10.43;2.92;;;;;;;13.21;74.95;100610.22;5030643;28;20063;-71
2022/11/03 09:51:35;;;;;;;14.55;2.80;;;;;;;13.23;74.66;100611.03;5025865;28;20033;-70
2022/11/03 09:54:04;;;;;;;9.20;2.30;;;;;;;13.22;74.91;100606.63;5025014;28;20623;-71
2022/11/03 09:56:31;;;;;;;11.45;2.53;;;;;;;13.20;75.16;100601.38;5027233;28;20115;-71
2022/11/03 09:58:58;;;;;;;15.68;3.05;;;;;;;13.19;74.70;100596.97;5031177;28;20039;-71
2022/11/03 10:01:23;;;;;;;14.43;2.83;;;;;;;13.19;75.01;100591.66;5027516;28;20434;-71
2022/11/03 10:03:49;;;;;;;13.93;3.15;;;;;;;13.16;74.77;100583.81;5015502;28;20060;-71
2022/11/03 10:06:16;;;;;;;15.10;3.35;;;;;;;13.16;74.37;100586.47;5023697;28;20084;-70
2022/11/03 10:08:44;;;;;;;6.90;2.40;;;;;;;13.14;74.99;100580.34;5013221;28;20052;-71
2022/11/03 10:11:11;;;;;;;12.20;2.83;;;;;;;13.11;75.13;100578.66;5026892;28;20470;-71
2022/11/03 10:13:39;;;;;;;10.18;2.65;;;;;;;13.13;74.31;100576.81;5028220;28;20123;-71
2022/11/03 10:16:07;;;;;;;13.20;2.35;;;;;;;13.10;74.81;100574.28;5027971;28;20060;-71
2022/11/03 10:18:35;;;;;;;8.13;2.55;;;;;;;13.10;75.04;100571.63;5026847;28;20064;-71
2022/11/03 10:21:10;;;;;;;12.68;3.08;;;;;;;13.12;74.59;100566.22;5029752;28;20029;-71
2022/11/03 10:23:35;;;;;;;12.98;2.85;;;;;;;13.10;74.77;100568.06;5030917;28;20492;-71
2022/11/03 10:26:09;;;;;;;10.85;2.40;;;;;;;13.11;74.51;100556.53;5012838;28;20045;-71
2022/11/03 10:28:35;;;;;;;13.23;2.75;;;;;;;13.10;74.70;100554.78;5034075;28;20424;-71
2022/11/03 10:31:07;;;;;;;9.40;2.40;;;;;;;13.10;74.72;100558.31;5033331;28;20045;-71
2022/11/03 10:33:39;;;;;;;14.13;2.83;;;;;;;13.13;74.12;100554.69;5029614;28;20541;-71
2022/11/03 10:36:22;;;;;;;11.65;2.60;;;;;;;13.16;74.76;100541.28;5027972;28;20038;-70
2022/11/03 10:38:48;;;;;;;10.63;2.33;;;;;;;13.21;73.89;100538.44;5029749;28;20032;-71
2022/11/03 10:41:21;;;;;;;9.80;3.00;;;;;;;13.26;74.19;100534.69;5028716;28;20176;-71
2022/11/03 10:44:18;;;;;;;10.55;2.88;;;;;;;13.36;73.86;100529.91;5030782;28;20026;-70
2022/11/03 10:47:01;;;;;;;5.25;1.88;;;;;;;13.42;73.62;100519.00;5030632;28;20523;-71
2022/11/03 10:49:32;;;;;;;9.93;2.45;;;;;;;13.45;73.11;100515.38;5029789;28;20393;-71
2022/11/03 10:52:13;;;;;;;11.55;2.58;;;;;;;13.51;73.51;100504.50;5017906;28;20037;-70
2022/11/03 10:54:38;;;;;;;;;;;;;;;13.58;73.76;100507.81;5031108;28;20125;-71
2022/11/03 10:57:04;;;;;;;10.23;2.30;;;;;;;13.63;72.72;100509.34;5030651;28;20013;-70
2022/11/03 10:59:32;;;;;;;15.23;2.50;;;;;;;13.66;72.75;100503.91;5030849;28;20048;-70
2022/11/03 11:01:59;;;;;;;6.82;2.35;;;;;;;13.71;72.50;100507.22;5029349;28;20049;-70
2022/11/03 11:04:25;;;;;;;11.02;2.95;;;;;;;13.75;72.11;100495.56;5030800;28;20041;-70
2022/11/03 11:06:51;;;;;;;9.25;2.67;;;;;;;13.81;71.78;100504.22;5029488;28;20048;-70
2022/11/03 11:09:24;;;;;;;8.27;2.50;;;;;;;13.85;71.43;100496.03;5030826;28;20100;-71
2022/11/03 11:12:15;;;;;;;10.38;2.20;;;;;;;13.94;71.78;100492.13;5029249;28;20056;-70
2022/11/03 11:14:54;;;;;;;;;;;;;;;14.02;72.08;100491.78;5013449;28;20030;-71
2022/11/03 11:17:48;;;;;;;9.73;2.30;;;;;;;14.07;71.02;100487.16;5030294;28;19921;-71
2022/11/03 11:20:32;;;;;;;11.77;2.50;;;;;;;14.10;69.73;100487.91;5030082;28;20050;-70
2022/11/03 11:23:25;;;;;;;10.10;2.45;;;;;;;14.07;69.24;100477.38;5030838;28;20037;-70
2022/11/03 11:26:09;;;;;;;5.53;2.17;;;;;;;14.07;69.39;100471.16;5022987;28;20029;-70
2022/11/03 11:28:39;;;;;;;5.65;2.05;;;;;;;14.07;69.47;100448.09;5030664;28;20056;-70
2022/11/03 11:31:40;;;;;;;14.13;2.47;;;;;;;14.08;68.95;100456.94;5029028;28;20038;-71
2022/11/03 11:34:15;;;;;;;9.80;2.50;;;;;;;14.11;68.80;100452.34;5032153;28;20513;-70
2022/11/03 11:36:43;;;;;;;9.23;2.05;;;;;;;14.18;68.13;100439.63;5028569;28;20560;-71
2022/11/03 11:39:27;;;;;;;9.45;2.28;;;;;;;14.22;68.59;100435.03;5030946;28;20124;-70
2022/11/03 11:42:18;;;;;;;7.10;2.15;;;;;;;14.28;68.60;100424.97;5025927;28;20033;-70
2022/11/03 11:45:02;;;;;;;8.85;3.13;;;;;;;14.34;66.84;100406.09;5031407;28;20065;-70
2022/11/03 11:47:39;;;;;;;10.60;2.47;;;;;;;14.40;67.00;100394.28;5034072;28;20430;-71
2022/11/03 11:50:05;;;;;;;6.88;2.00;;;;;;;14.45;67.31;100394.09;5034230;28;20404;-70
2022/11/03 11:52:36;;;;;;;10.45;2.72;;;;;;;14.48;66.66;100383.28;5034236;28;20021;-70